Time;durP1;ratioP1;P1;durP2;ratioP2;P2;SDS_P1;SDS_P2;PMS_P1;PMS_P2;Temp;Humidity;BMP_temperature;BMP_pressure;BME280_temperature;BME280_humidity;BME280_pressure;Samples;Min_cycle;Max_cycle;Signal;HPM_P1;HPM_P2
2023/10/29 00:00:28;;;;;;;;;0.00;0.00;;;;;14.29;79.85;98841.94;5037658;28;45282;-70
2023/10/29 00:02:54;;;;;;;;;5.00;4.75;;;;;14.30;80.55;98862.31;5022172;28;45556;-70
2023/10/29 00:05:20;;;;;;;;;0.50;0.50;;;;;14.28;80.19;98843.81;5039850;28;45709;-69
2023/10/29 00:07:45;;;;;;;;;0.00;0.00;;;;;14.25;80.00;98828.19;5039721;28;45513;-69
2023/10/29 00:10:11;;;;;;;;;0.00;0.00;;;;;14.31;80.23;98818.50;5039835;28;45515;-69
2023/10/29 00:12:36;;;;;;;;;0.00;0.00;;;;;14.37;80.65;98832.84;5040161;28;45326;-69
2023/10/29 00:15:03;;;;;;;;;0.00;0.00;;;;;14.38;80.98;98821.94;5021739;28;47249;-70
2023/10/29 00:17:28;;;;;;;;;0.75;0.75;;;;;14.44;81.05;98814.97;5039359;28;45492;-70
2023/10/29 00:19:53;;;;;;;;;0.00;0.00;;;;;14.40;81.17;98814.53;5039592;28;45424;-69
2023/10/29 00:22:19;;;;;;;;;0.00;0.00;;;;;14.27;81.31;98788.72;5021751;28;45506;-70
2023/10/29 00:24:44;;;;;;;;;0.00;0.00;;;;;14.45;81.49;98827.28;5039277;28;46640;-69
2023/10/29 00:27:09;;;;;;;;;1.00;0.00;;;;;14.43;81.69;98822.16;5038978;28;45304;-69
2023/10/29 00:29:35;;;;;;;;;0.75;0.75;;;;;14.46;81.99;98829.75;5039537;28;45478;-69
2023/10/29 00:32:01;;;;;;;;;0.00;0.00;;;;;14.39;82.20;98822.75;5039551;28;45365;-69
2023/10/29 00:34:26;;;;;;;;;0.00;0.00;;;;;14.47;82.13;98823.38;5039017;28;46600;-69
2023/10/29 00:36:51;;;;;;;;;0.25;0.25;;;;;14.49;82.14;98802.56;5039070;28;45270;-69
2023/10/29 00:39:17;;;;;;;;;1.00;1.00;;;;;14.42;82.36;98800.97;5039113;28;45211;-69
2023/10/29 00:41:43;;;;;;;;;0.00;0.00;;;;;14.38;82.76;98794.38;5039465;28;45513;-70
2023/10/29 00:44:08;;;;;;;;;0.75;0.75;;;;;14.51;82.33;98797.00;5039023;28;46711;-69
2023/10/29 00:46:34;;;;;;;;;0.00;0.00;;;;;14.49;82.45;98783.03;5039009;28;45339;-70
2023/10/29 00:48:59;;;;;;;;;2.75;0.25;;;;;14.55;82.50;98790.19;5039454;28;45400;-70
2023/10/29 00:51:25;;;;;;;;;0.00;0.00;;;;;14.32;82.65;98727.41;5039174;28;45563;-69
2023/10/29 00:53:51;;;;;;;;;1.75;0.50;;;;;14.57;82.80;98767.53;5038896;28;46489;-69
2023/10/29 00:56:18;;;;;;;;;1.00;1.00;;;;;14.53;82.69;98768.19;5037610;28;45565;-69
2023/10/29 00:58:44;;;;;;;;;0.50;0.50;;;;;14.46;82.89;98759.41;5038903;28;45341;-69
2023/10/29 01:01:10;;;;;;;;;0.00;0.00;;;;;14.58;82.88;98789.75;5039075;28;45474;-69
2023/10/29 01:03:35;;;;;;;;;2.50;0.50;;;;;14.59;82.71;98799.41;5038785;28;47374;-68
2023/10/29 01:06:01;;;;;;;;;0.00;0.00;;;;;14.64;82.79;98794.25;5038844;28;45428;-68
2023/10/29 01:08:26;;;;;;;;;0.50;0.50;;;;;14.67;82.33;98803.69;5038838;28;45837;-69
2023/10/29 01:10:52;;;;;;;;;0.00;0.00;;;;;14.66;82.62;98797.53;5038841;28;45306;-69
2023/10/29 01:13:17;;;;;;;;;0.00;0.00;;;;;14.69;82.49;98806.97;5035973;28;48505;-69
2023/10/29 01:15:43;;;;;;;;;0.00;0.00;;;;;14.72;82.29;98836.75;5038526;28;45282;-70
2023/10/29 01:18:08;;;;;;;;;1.00;1.00;;;;;14.73;82.23;98824.22;5038767;28;45344;-69
2023/10/29 01:20:34;;;;;;;;;0.00;0.00;;;;;14.73;82.06;98818.84;5038989;28;45550;-69
2023/10/29 01:22:59;;;;;;;;;0.75;0.75;;;;;14.71;82.28;98824.44;5038302;28;45968;-69
2023/10/29 01:25:25;;;;;;;;;0.00;0.00;;;;;14.79;81.95;98834.84;5038450;28;45916;-69
2023/10/29 01:27:51;;;;;;;;;1.00;1.00;;;;;14.81;81.86;98822.06;5037030;28;45264;-70
2023/10/29 01:30:17;;;;;;;;;0.00;0.00;;;;;14.85;82.11;98839.34;5038643;28;45393;-69
2023/10/29 01:32:43;;;;;;;;;0.25;0.25;;;;;14.88;81.72;98844.25;5038206;28;47112;-68
2023/10/29 01:35:08;;;;;;;;;0.00;0.00;;;;;14.87;81.38;98834.59;5038314;28;45315;-70
2023/10/29 01:37:34;;;;;;;;;1.00;1.00;;;;;14.69;81.26;98812.31;5038326;28;45499;-70
2023/10/29 01:40:00;;;;;;;;;2.00;1.00;;;;;14.81;81.21;98838.13;5020668;28;45386;-70
2023/10/29 01:42:26;;;;;;;;;0.00;0.00;;;;;14.91;81.37;98851.03;5037752;28;46333;-70
2023/10/29 01:44:51;;;;;;;;;6.00;1.00;;;;;14.97;81.02;98857.34;5038289;28;45409;-70
2023/10/29 01:47:17;;;;;;;;;1.50;0.00;;;;;14.99;80.93;98872.16;5038065;28;45257;-70
2023/10/29 01:49:42;;;;;;;;;1.50;1.50;;;;;14.89;80.63;98851.25;5038505;28;45487;-70
2023/10/29 01:52:07;;;;;;;;;0.00;0.00;;;;;15.00;80.16;98860.41;5037807;28;46238;-69
2023/10/29 01:54:33;;;;;;;;;0.00;0.00;;;;;14.97;80.08;98862.72;5038021;28;45331;-70
2023/10/29 01:56:58;;;;;;;;;0.00;0.00;;;;;14.99;79.81;98860.63;5037863;28;45519;-69
2023/10/29 01:59:24;;;;;;;;;2.00;1.00;;;;;14.79;79.86;98834.03;5038136;28;45192;-69
2023/10/29 02:01:50;;;;;;;;;1.00;0.00;;;;;14.99;79.33;98874.81;5037820;28;45530;-71
2023/10/29 02:04:15;;;;;;;;;2.00;0.25;;;;;14.89;78.82;98839.72;5037784;28;45298;-70
2023/10/29 02:06:41;;;;;;;;;0.75;0.00;;;;;14.90;78.69;98878.81;5038112;28;45351;-69
2023/10/29 02:09:10;;;;;;;;;1.00;1.00;;;;;14.80;78.31;98852.53;5038292;28;45412;-70
2023/10/29 02:11:39;;;;;;;;;0.00;0.00;;;;;14.92;78.09;98882.09;5037328;28;45855;-70
2023/10/29 02:14:05;;;;;;;;;1.00;0.00;;;;;14.96;78.25;98893.19;5037657;28;45310;-70
2023/10/29 02:16:31;;;;;;;;;2.75;1.00;;;;;14.93;77.98;98894.44;5038047;28;45449;-70
2023/10/29 02:18:56;;;;;;;;;1.75;0.75;;;;;14.90;77.38;98906.41;5038124;28;45472;-70
2023/10/29 02:21:23;;;;;;;;;2.00;1.00;;;;;14.57;76.66;98828.22;5037579;28;46636;-70
2023/10/29 02:23:49;;;;;;;;;1.25;0.50;;;;;14.84;76.19;98895.75;5037373;28;45327;-69
2023/10/29 02:26:14;;;;;;;;;0.00;0.00;;;;;14.88;75.75;98892.41;5037720;28;45295;-70
2023/10/29 02:28:40;;;;;;;;;0.50;0.50;;;;;14.93;75.53;98893.63;5037788;28;45197;-70
2023/10/29 02:31:05;;;;;;;;;2.75;1.00;;;;;14.90;76.10;98901.03;5037450;28;46630;-69
2023/10/29 02:33:31;;;;;;;;;3.50;1.75;;;;;14.86;76.71;98883.78;5037409;28;45281;-70
2023/10/29 02:35:56;;;;;;;;;3.00;0.50;;;;;14.84;77.29;98901.09;5037738;28;45592;-70
2023/10/29 02:38:23;;;;;;;;;2.25;1.50;;;;;14.84;77.38;98903.78;5037509;28;45532;-69
2023/10/29 02:40:48;;;;;;;;;1.00;1.00;;;;;14.85;77.35;98919.59;5035975;28;47661;-70
2023/10/29 02:43:14;;;;;;;;;0.00;0.00;;;;;14.78;77.59;98905.44;5037029;28;45503;-69
2023/10/29 02:45:41;;;;;;;;;3.00;1.00;;;;;14.72;77.42;98903.63;5037570;28;45332;-71
2023/10/29 02:48:06;;;;;;;;;1.00;0.50;;;;;14.84;77.25;98934.03;5037499;28;45412;-69
2023/10/29 02:50:31;;;;;;;;;1.00;0.00;;;;;14.85;76.85;98949.03;5037212;28;46273;-69
2023/10/29 02:52:57;;;;;;;;;1.50;1.50;;;;;14.83;76.56;98947.63;5037323;28;45353;-69
2023/10/29 02:55:22;;;;;;;;;0.75;0.75;;;;;14.51;76.27;98890.59;5037281;28;45519;-69
2023/10/29 02:57:48;;;;;;;;;1.00;1.00;;;;;14.83;76.28;98953.78;5035864;28;45420;-70
2023/10/29 03:00:13;;;;;;;;;0.75;0.00;;;;;14.84;76.28;98959.97;5037044;28;45471;-69
2023/10/29 03:02:39;;;;;;;;;0.50;0.00;;;;;14.55;75.30;98908.66;5037143;28;45342;-69
2023/10/29 03:05:05;;;;;;;;;1.75;0.00;;;;;14.82;74.75;98945.97;5037160;28;45486;-69
2023/10/29 03:07:30;;;;;;;;;0.25;0.25;;;;;14.83;74.60;98961.81;5037513;28;45236;-69
2023/10/29 03:09:56;;;;;;;;;0.00;0.00;;;;;14.50;74.63;98915.69;5037088;28;46671;-69
2023/10/29 03:12:21;;;;;;;;;3.25;0.25;;;;;14.64;74.62;98944.03;5018733;28;45247;-70
2023/10/29 03:14:46;;;;;;;;;3.00;0.75;;;;;14.82;74.48;98968.19;5036856;28;45456;-68
2023/10/29 03:17:12;;;;;;;;;1.00;0.25;;;;;14.86;75.00;98960.56;5018984;28;45466;-69
2023/10/29 03:19:37;;;;;;;;;2.00;2.00;;;;;14.83;74.68;98953.78;5018870;28;46268;-70
2023/10/29 03:22:04;;;;;;;;;0.00;0.00;;;;;14.84;74.26;98960.78;5036721;28;45510;-69
2023/10/29 03:24:29;;;;;;;;;0.25;0.25;;;;;14.77;73.80;98935.91;5036910;28;45227;-70
2023/10/29 03:26:55;;;;;;;;;1.75;1.00;;;;;14.53;72.34;98904.56;5036942;28;45335;-70
2023/10/29 03:29:20;;;;;;;;;2.25;1.00;;;;;14.71;72.33;98939.44;5036782;28;46828;-70
2023/10/29 03:31:46;;;;;;;;;1.00;1.00;;;;;14.76;71.94;98958.34;5036778;28;45287;-69
2023/10/29 03:34:12;;;;;;;;;2.25;1.00;;;;;14.74;72.06;98962.25;5036824;28;45419;-69
2023/10/29 03:36:38;;;;;;;;;0.00;0.00;;;;;14.69;72.04;98956.75;5039775;28;45357;-70
2023/10/29 03:39:03;;;;;;;;;0.75;0.50;;;;;14.78;72.09;98972.31;5038573;28;47790;-71
2023/10/29 03:41:28;;;;;;;;;2.50;0.75;;;;;14.72;71.57;98977.72;5039911;28;45444;-70
2023/10/29 03:43:54;;;;;;;;;2.00;0.00;;;;;14.71;71.75;98981.41;5040030;28;45247;-68
2023/10/29 03:46:19;;;;;;;;;0.00;0.00;;;;;14.65;71.44;98963.56;5040322;28;45571;-70
2023/10/29 03:48:45;;;;;;;;;1.75;1.00;;;;;14.77;71.14;98999.28;5040009;28;45483;-70
2023/10/29 03:51:14;;;;;;;;;0.50;0.50;;;;;14.73;71.00;99009.59;5040049;28;45541;-70
2023/10/29 03:53:40;;;;;;;;;0.00;0.00;;;;;14.72;70.96;99021.34;5040195;28;45467;-70
2023/10/29 03:56:06;;;;;;;;;1.00;1.00;;;;;14.45;71.09;98985.03;5022350;28;45266;-70
2023/10/29 03:58:32;;;;;;;;;1.25;0.50;;;;;14.65;71.37;99012.53;5039563;28;45721;-70
2023/10/29 04:00:57;;;;;;;;;0.00;0.00;;;;;14.50;71.47;98975.34;5038475;28;45719;-71
2023/10/29 04:03:22;;;;;;;;;0.00;0.00;;;;;14.64;71.35;98999.38;5040139;28;45325;-70
2023/10/29 04:05:48;;;;;;;;;1.75;1.00;;;;;14.52;71.51;99004.53;5040235;28;45551;-70
2023/10/29 04:08:13;;;;;;;;;1.00;1.00;;;;;14.58;71.63;99028.59;5039828;28;45798;-70
2023/10/29 04:10:39;;;;;;;;;2.50;2.50;;;;;14.58;71.61;99019.72;5039897;28;45317;-70
2023/10/29 04:13:04;;;;;;;;;0.00;0.00;;;;;14.42;71.35;98993.47;5038137;28;45512;-71
2023/10/29 04:15:29;;;;;;;;;1.00;1.00;;;;;14.53;71.70;99006.19;5040060;28;45376;-71
2023/10/29 04:17:55;;;;;;;;;2.50;1.50;;;;;14.55;71.58;99017.50;5039386;28;46662;-71
2023/10/29 04:20:20;;;;;;;;;3.50;0.75;;;;;14.38;71.87;98987.69;5039662;28;45474;-70
2023/10/29 04:22:45;;;;;;;;;0.00;0.00;;;;;14.53;72.03;99024.91;5039769;28;45455;-70
2023/10/29 04:25:11;;;;;;;;;0.00;0.00;;;;;14.51;71.68;99035.00;5040013;28;45440;-71
2023/10/29 04:27:36;;;;;;;;;1.00;0.00;;;;;14.50;71.62;99034.19;5021345;28;47281;-70
2023/10/29 04:30:02;;;;;;;;;2.50;2.50;;;;;14.47;71.75;99023.09;5039448;28;45281;-70
2023/10/29 04:32:27;;;;;;;;;0.50;0.50;;;;;14.44;71.47;99023.50;5039683;28;45282;-70
2023/10/29 04:34:53;;;;;;;;;0.00;0.00;;;;;14.40;71.61;99019.56;5039884;28;45579;-70
2023/10/29 04:37:18;;;;;;;;;1.00;1.00;;;;;14.42;72.08;99030.91;5039224;28;46297;-70
2023/10/29 04:39:46;;;;;;;;;1.67;1.33;;;;;14.30;71.98;99007.47;5039328;28;45241;-70
2023/10/29 04:42:11;;;;;;;;;1.00;1.00;;;;;14.29;72.29;99011.19;5039131;28;45326;-70
2023/10/29 04:44:36;;;;;;;;;2.00;1.00;;;;;14.09;72.05;98978.34;5039401;28;45681;-70
2023/10/29 04:47:03;;;;;;;;;1.00;1.00;;;;;14.32;72.57;99008.06;5039076;28;46451;-70
2023/10/29 04:49:29;;;;;;;;;3.00;1.00;;;;;14.32;72.60;99010.75;5038861;28;45484;-70
2023/10/29 04:51:54;;;;;;;;;1.50;0.50;;;;;14.36;72.69;99000.44;5039381;28;45538;-70
2023/10/29 04:54:20;;;;;;;;;1.50;1.00;;;;;14.34;72.81;98993.69;5039205;28;45480;-70
2023/10/29 04:56:45;;;;;;;;;6.00;1.00;;;;;14.24;72.88;98980.78;5038590;28;46649;-70
2023/10/29 04:59:11;;;;;;;;;2.67;2.00;;;;;14.31;72.80;98993.06;5021305;28;45451;-70
2023/10/29 05:01:36;;;;;;;;;2.50;1.00;;;;;14.26;73.09;98984.06;5039172;28;45445;-70
2023/10/29 05:04:01;;;;;;;;;2.00;1.00;;;;;14.27;73.57;99007.91;5039206;28;45455;-70
2023/10/29 05:06:27;;;;;;;;;4.50;2.00;;;;;14.21;73.57;99007.91;5037510;28;47517;-70
2023/10/29 05:08:52;;;;;;;;;2.75;1.00;;;;;14.13;74.02;99008.94;5038806;28;50091;-70
2023/10/29 05:11:18;;;;;;;;;2.33;1.00;;;;;13.83;73.86;98963.19;5038975;28;45512;-70
2023/10/29 05:13:44;;;;;;;;;2.00;0.00;;;;;14.06;74.14;99004.66;5038803;28;45167;-70
2023/10/29 05:16:10;;;;;;;;;3.25;1.00;;;;;14.02;74.16;98990.91;5038874;28;46270;-70
2023/10/29 05:18:35;;;;;;;;;2.00;1.00;;;;;13.74;74.24;98944.91;5038457;28;45475;-70
2023/10/29 05:21:01;;;;;;;;;1.00;0.75;;;;;14.10;74.43;98995.19;5038620;28;45325;-70
2023/10/29 05:23:29;;;;;;;;;2.50;1.00;;;;;14.06;74.20;99004.66;5039155;28;45628;-70
2023/10/29 05:25:54;;;;;;;;;2.50;0.00;;;;;13.95;74.60;98990.06;5038420;28;46674;-70
2023/10/29 05:28:21;;;;;;;;;1.25;1.25;;;;;14.01;74.84;99007.94;5038251;28;45266;-69
2023/10/29 05:30:47;;;;;;;;;0.75;0.00;;;;;13.94;74.71;99001.78;5039133;28;45543;-70
2023/10/29 05:33:12;;;;;;;;;1.00;1.00;;;;;13.91;75.49;99002.22;5037407;28;45247;-70
2023/10/29 05:35:37;;;;;;;;;0.25;0.00;;;;;13.89;75.31;98998.94;5038657;28;47321;-70
2023/10/29 05:38:03;;;;;;;;;0.00;0.00;;;;;13.73;75.78;98975.31;5037975;28;45317;-70
2023/10/29 05:40:29;;;;;;;;;2.00;0.00;;;;;13.87;75.73;99009.00;5038484;28;45216;-70
2023/10/29 05:42:54;;;;;;;;;2.00;1.00;;;;;13.87;75.96;99017.84;5020388;28;45509;-70
2023/10/29 05:45:19;;;;;;;;;2.00;1.00;;;;;13.25;76.32;98917.66;5038339;28;46591;-70
2023/10/29 05:47:44;;;;;;;;;1.75;1.00;;;;;13.81;76.41;99023.16;5038224;28;45159;-70
2023/10/29 05:50:10;;;;;;;;;1.00;1.00;;;;;13.81;77.00;99026.66;5038188;28;45488;-70
2023/10/29 05:52:35;;;;;;;;;4.75;0.25;;;;;13.85;77.25;99035.09;5020464;28;45283;-70
2023/10/29 05:55:02;;;;;;;;;2.00;2.00;;;;;13.81;77.21;99023.16;5038010;28;46382;-70
2023/10/29 05:57:28;;;;;;;;;2.75;2.00;;;;;13.67;77.63;98998.34;5037121;28;45490;-70
2023/10/29 05:59:53;;;;;;;;;0.00;0.00;;;;;13.78;77.42;99013.72;5037942;28;45367;-70
2023/10/29 06:02:18;;;;;;;;;1.25;1.00;;;;;13.83;77.69;99018.47;5038698;28;45313;-70
2023/10/29 06:04:44;;;;;;;;;0.00;0.00;;;;;13.82;77.96;99008.81;5037641;28;57355;-70
2023/10/29 06:07:09;;;;;;;;;2.50;1.50;;;;;13.76;77.82;99014.97;5037880;28;45491;-70
2023/10/29 06:09:35;;;;;;;;;1.00;1.00;;;;;13.70;77.97;99017.44;5037739;28;45471;-70
2023/10/29 06:12:00;;;;;;;;;2.50;1.50;;;;;13.75;78.67;99042.69;5036590;28;45310;-70
2023/10/29 06:14:26;;;;;;;;;2.25;1.00;;;;;13.70;78.78;99043.31;5037643;28;45741;-70
2023/10/29 06:16:56;;;;;;;;;1.25;1.25;;;;;13.66;78.88;99045.59;5037543;28;45307;-70
2023/10/29 06:19:22;;;;;;;;;0.50;0.00;;;;;13.70;79.39;99052.16;5037969;28;45318;-71
2023/10/29 06:21:48;;;;;;;;;0.00;0.00;;;;;13.35;79.12;98991.97;5037997;28;45580;-70
2023/10/29 06:24:13;;;;;;;;;0.75;0.75;;;;;13.59;79.28;99027.91;5037424;28;45489;-71
2023/10/29 06:26:38;;;;;;;;;3.00;3.00;;;;;13.65;79.24;99046.63;5037262;28;45351;-69
2023/10/29 06:29:06;;;;;;;;;1.00;1.00;;;;;13.47;79.59;99014.38;5037886;28;45408;-70
2023/10/29 06:31:33;;;;;;;;;0.25;0.25;;;;;13.56;79.47;99037.16;5037783;28;45510;-71
2023/10/29 06:33:58;;;;;;;;;2.50;1.00;;;;;13.63;79.46;99054.00;5037321;28;46747;-70
2023/10/29 06:36:23;;;;;;;;;0.00;0.00;;;;;13.67;79.25;99060.59;5037360;28;45502;-70
2023/10/29 06:38:49;;;;;;;;;3.67;1.00;;;;;13.64;79.26;99063.66;5037349;28;45360;-70
2023/10/29 06:41:14;;;;;;;;;3.00;0.00;;;;;13.65;79.41;99051.13;5037476;28;45308;-70
2023/10/29 06:43:39;;;;;;;;;3.25;0.50;;;;;13.48;79.40;99033.88;5036914;28;48114;-70
2023/10/29 06:46:05;;;;;;;;;2.00;1.50;;;;;13.63;79.24;99058.53;5036888;28;45156;-70
2023/10/29 06:48:30;;;;;;;;;1.00;1.00;;;;;13.60;79.28;99046.38;5037302;28;45406;-69
2023/10/29 06:50:55;;;;;;;;;2.25;0.00;;;;;13.55;79.05;99056.88;5037204;28;46530;-69
2023/10/29 06:53:20;;;;;;;;;1.67;0.00;;;;;13.59;79.06;99070.63;5037137;28;46294;-70
2023/10/29 06:55:46;;;;;;;;;3.25;1.25;;;;;12.41;79.16;98888.81;5037343;28;45409;-70
2023/10/29 06:58:11;;;;;;;;;1.00;1.00;;;;;13.52;79.22;99072.47;5036980;28;45266;-70
2023/10/29 07:00:36;;;;;;;;;0.33;0.33;;;;;13.53;79.56;99077.63;5036975;28;45409;-70
2023/10/29 07:03:02;;;;;;;;;1.50;1.50;;;;;13.55;79.32;99083.56;5036850;28;46485;-70
2023/10/29 07:05:28;;;;;;;;;1.67;1.00;;;;;13.55;79.46;99077.41;5036853;28;45452;-70
2023/10/29 07:07:54;;;;;;;;;0.00;0.00;;;;;13.56;79.24;99085.22;5037080;28;45295;-69
2023/10/29 07:10:19;;;;;;;;;2.00;0.00;;;;;13.36;79.20;99060.34;5036024;28;45360;-69
2023/10/29 07:12:44;;;;;;;;;3.00;1.00;;;;;13.66;79.03;99088.31;5033849;28;45713;-73
2023/10/29 07:15:10;;;;;;;;;2.00;1.00;;;;;13.72;78.85;99094.69;5054626;28;45490;-69
2023/10/29 07:17:36;;;;;;;;;3.00;3.00;;;;;12.74;78.70;98931.50;5037936;28;45483;-70
2023/10/29 07:20:01;;;;;;;;;2.50;1.50;;;;;13.87;78.40;99091.81;5056766;28;45515;-69
2023/10/29 07:22:27;;;;;;;;;0.75;0.25;;;;;13.90;78.37;99081.53;5055975;28;47461;-70
2023/10/29 07:24:52;;;;;;;;;4.00;2.00;;;;;13.62;78.51;99015.00;5055425;28;45708;-69
2023/10/29 07:27:18;;;;;;;;;2.00;0.50;;;;;13.69;78.32;99017.66;5055715;28;45448;-69
2023/10/29 07:29:43;;;;;;;;;2.50;0.75;;;;;13.89;78.32;99031.81;5055770;28;45530;-69
2023/10/29 07:32:09;;;;;;;;;3.25;0.00;;;;;14.14;77.77;99058.69;5056048;28;45842;-71
2023/10/29 07:34:34;;;;;;;;;2.00;1.00;;;;;14.22;77.32;99046.97;5056065;28;45180;-68
2023/10/29 07:36:59;;;;;;;;;1.00;1.00;;;;;14.30;77.66;99052.91;5056403;28;45572;-70
2023/10/29 07:39:25;;;;;;;;;3.25;1.50;;;;;14.39;77.21;99060.69;5056530;28;45576;-71
2023/10/29 07:41:51;;;;;;;;;0.75;0.50;;;;;14.05;77.13;99009.19;5056294;28;46351;-72
2023/10/29 07:44:16;;;;;;;;;2.25;1.00;;;;;14.39;77.37;99052.69;5055531;28;45285;-70
2023/10/29 07:46:41;;;;;;;;;3.75;2.50;;;;;14.43;77.24;99044.09;5056493;28;45204;-69
2023/10/29 07:49:07;;;;;;;;;1.00;1.00;;;;;14.43;77.09;99043.22;5054597;28;45570;-70
2023/10/29 07:51:32;;;;;;;;;0.25;0.25;;;;;14.38;76.99;99032.31;5051199;28;46645;-70
2023/10/29 07:53:58;;;;;;;;;2.25;1.25;;;;;14.08;77.11;98982.03;5054021;28;45468;-70
2023/10/29 07:56:23;;;;;;;;;0.50;0.00;;;;;14.56;76.78;99056.56;5056416;28;45492;-69
2023/10/29 07:58:49;;;;;;;;;2.00;0.25;;;;;14.59;76.79;99064.16;5055793;28;45639;-70
2023/10/29 08:01:16;;;;;;;;;0.25;0.00;;;;;14.64;76.96;99045.66;5055155;28;46380;-72
2023/10/29 08:03:43;;;;;;;;;3.00;2.00;;;;;14.39;76.98;99007.22;5054042;28;45563;-72
2023/10/29 08:06:10;;;;;;;;;0.75;0.75;;;;;14.27;76.88;98997.19;5055355;28;45252;-70
2023/10/29 08:08:36;;;;;;;;;0.50;0.50;;;;;14.63;77.05;99061.91;5055947;28;45745;-70
2023/10/29 08:11:01;;;;;;;;;2.50;0.00;;;;;14.33;77.08;99003.56;5055778;28;45796;-70
2023/10/29 08:13:27;;;;;;;;;0.25;0.25;;;;;14.66;77.06;99042.78;5055591;28;45420;-70
2023/10/29 08:15:52;;;;;;;;;0.50;0.00;;;;;14.79;77.17;99048.88;5056107;28;45477;-69
2023/10/29 08:18:17;;;;;;;;;1.00;1.00;;;;;14.85;76.79;99058.75;5053245;28;46115;-70
2023/10/29 08:20:43;;;;;;;;;1.00;1.00;;;;;14.72;77.02;99048.09;5054840;28;45575;-70
2023/10/29 08:23:08;;;;;;;;;1.00;1.00;;;;;14.93;77.09;99063.00;5056237;28;45404;-69
2023/10/29 08:25:38;;;;;;;;;0.75;0.75;;;;;14.88;77.58;99052.13;5058639;28;45399;-70
2023/10/29 08:28:05;;;;;;;;;0.00;0.00;;;;;14.97;77.90;99060.72;5056561;28;45589;-71
2023/10/29 08:30:30;;;;;;;;;2.50;1.00;;;;;14.95;78.45;99062.78;5059056;28;47109;-69
2023/10/29 08:32:56;;;;;;;;;0.75;0.50;;;;;14.88;78.76;99039.56;5058993;28;45418;-70
2023/10/29 08:35:21;;;;;;;;;0.25;0.25;;;;;14.98;78.94;99057.00;5059133;28;45340;-69
2023/10/29 08:37:47;;;;;;;;;0.75;0.75;;;;;14.83;79.60;99058.13;5040234;28;45685;-76
2023/10/29 08:40:12;;;;;;;;;2.25;1.00;;;;;14.85;80.47;99063.28;5058253;28;47430;-69
2023/10/29 08:42:38;;;;;;;;;0.50;0.50;;;;;14.59;80.99;99032.91;5056320;28;45488;-68
2023/10/29 08:45:04;;;;;;;;;1.00;0.00;;;;;14.41;81.09;99034.56;5057431;28;45368;-71
2023/10/29 08:47:30;;;;;;;;;0.00;0.00;;;;;14.76;81.80;99097.44;5058022;28;45498;-70
2023/10/29 08:49:58;;;;;;;;;0.00;0.00;;;;;14.72;82.04;99088.22;5052578;28;45538;-69
2023/10/29 08:52:23;;;;;;;;;2.00;1.00;;;;;14.71;81.84;99072.38;5058725;28;45374;-69
2023/10/29 08:54:49;;;;;;;;;0.00;0.00;;;;;14.76;81.76;99097.44;5058801;28;45383;-71
2023/10/29 08:57:14;;;;;;;;;0.00;0.00;;;;;14.67;81.88;99061.28;5058165;28;45244;-70
2023/10/29 08:59:40;;;;;;;;;1.50;0.50;;;;;14.86;82.05;99056.88;5056478;28;45655;-70
2023/10/29 09:02:06;;;;;;;;;0.00;0.00;;;;;14.66;81.40;99019.53;5056788;28;45459;-71
2023/10/29 09:04:36;;;;;;;;;0.00;0.00;;;;;14.90;81.23;99052.75;5056727;28;45672;-71
2023/10/29 09:07:02;;;;;;;;;1.50;0.00;;;;;14.88;80.94;99044.09;5057753;28;45332;-70
2023/10/29 09:09:28;;;;;;;;;0.00;0.00;;;;;14.93;81.27;99062.19;5058665;28;46391;-70
2023/10/29 09:11:53;;;;;;;;;3.75;0.75;;;;;14.83;80.76;99047.44;5056755;28;45367;-71
2023/10/29 09:14:19;;;;;;;;;1.25;1.00;;;;;14.97;80.51;99050.03;5057857;28;45463;-70
2023/10/29 09:16:47;;;;;;;;;0.00;0.00;;;;;14.90;80.50;99034.00;5057947;28;45547;-69
2023/10/29 09:19:12;;;;;;;;;0.00;0.00;;;;;14.94;80.68;99045.09;5057409;28;47601;-69
2023/10/29 09:21:38;;;;;;;;;1.00;1.00;;;;;14.92;80.35;99021.22;5040127;28;46473;-68
2023/10/29 09:24:03;;;;;;;;;1.00;1.00;;;;;14.89;80.18;99021.66;5058388;28;45471;-70
2023/10/29 09:26:29;;;;;;;;;2.50;2.50;;;;;14.94;80.92;99024.50;5058225;28;45538;-68
2023/10/29 09:28:54;;;;;;;;;0.50;0.50;;;;;14.86;79.53;99033.63;5057806;28;45837;-69
2023/10/29 09:31:20;;;;;;;;;5.50;3.50;;;;;14.84;79.31;99016.16;5058196;28;45407;-68
2023/10/29 09:33:45;;;;;;;;;1.00;0.00;;;;;14.77;80.14;99002.78;5057493;28;45297;-69
2023/10/29 09:36:10;;;;;;;;;0.25;0.00;;;;;14.89;80.25;99010.97;5056899;28;45487;-69
2023/10/29 09:38:36;;;;;;;;;0.25;0.25;;;;;14.87;80.04;98992.44;5056935;28;45861;-70
2023/10/29 09:41:02;;;;;;;;;0.00;0.00;;;;;15.03;79.57;99038.50;5058338;28;45563;-69
2023/10/29 09:43:37;;;;;;;;;1.00;1.00;;;;;15.11;79.30;99052.41;5058009;28;45517;-70
2023/10/29 09:46:05;;;;;;;;;0.00;0.00;;;;;15.15;78.80;99058.97;5058332;28;45511;-69
2023/10/29 09:48:32;;;;;;;;;0.25;0.25;;;;;15.12;79.08;99043.34;5039811;28;47864;-69
2023/10/29 09:50:59;;;;;;;;;0.50;0.50;;;;;15.13;78.15;99053.03;5057972;28;45406;-68
2023/10/29 09:53:26;;;;;;;;;0.00;0.00;;;;;15.05;77.91;99063.19;5058272;28;45303;-70
2023/10/29 09:55:54;;;;;;;;;0.00;0.00;;;;;15.01;78.55;99068.09;5058237;28;45479;-70
2023/10/29 09:58:22;;;;;;;;;0.00;0.00;;;;;14.87;78.45;99039.78;5055584;28;45954;-69
2023/10/29 10:00:49;;;;;;;;;0.75;0.75;;;;;14.93;79.13;99046.13;5057852;28;45407;-70
2023/10/29 10:03:15;;;;;;;;;1.00;0.00;;;;;14.81;79.26;99020.03;5057998;28;45523;-70
2023/10/29 10:05:42;;;;;;;;;0.75;0.00;;;;;14.85;79.54;99023.97;5058088;28;45454;-69
2023/10/29 10:08:09;;;;;;;;;0.00;0.00;;;;;14.88;79.55;99030.72;5057599;28;46572;-70
2023/10/29 10:10:37;;;;;;;;;1.00;0.00;;;;;14.96;79.78;99043.03;5057634;28;45512;-70
2023/10/29 10:13:04;;;;;;;;;1.00;0.00;;;;;14.98;79.37;99039.09;5057421;28;45503;-68
2023/10/29 10:15:29;;;;;;;;;0.00;0.00;;;;;15.07;79.14;99053.06;5057749;28;45341;-68
2023/10/29 10:17:59;;;;;;;;;0.00;0.00;;;;;15.10;78.09;99050.78;5056008;28;46728;-70
2023/10/29 10:20:25;;;;;;;;;1.50;0.25;;;;;15.15;78.01;99047.47;5057056;28;45598;-70
2023/10/29 10:22:58;;;;;;;;;1.00;1.00;;;;;15.06;77.89;99019.31;5057718;28;45317;-69
2023/10/29 10:25:25;;;;;;;;;0.00;0.00;;;;;15.34;77.57;99057.22;5039767;28;45376;-69
2023/10/29 10:27:52;;;;;;;;;0.25;0.25;;;;;15.40;77.06;99056.34;5057058;28;45220;-69
2023/10/29 10:30:33;;;;;;;;;1.00;0.00;;;;;15.46;76.55;99068.09;5057352;28;45413;-69
2023/10/29 10:33:20;;;;;;;;;0.00;0.00;;;;;15.48;76.13;99060.66;5055160;28;45395;-69
2023/10/29 10:35:49;;;;;;;;;0.00;0.00;;;;;15.35;75.22;99017.88;5036171;28;45507;-69
2023/10/29 10:38:15;;;;;;;;;0.25;0.25;;;;;15.51;75.22;99031.56;5051166;28;46848;-69
2023/10/29 10:40:41;;;;;;;;;1.00;0.00;;;;;15.39;74.86;99006.50;5055641;28;45345;-68
2023/10/29 10:43:07;;;;;;;;;0.00;0.00;;;;;15.22;74.38;98962.59;5057075;28;45495;-69
2023/10/29 10:45:35;;;;;;;;;0.00;0.00;;;;;15.67;74.62;99008.00;5053505;28;45216;-69
2023/10/29 10:48:06;;;;;;;;;0.00;0.00;;;;;15.75;74.55;99015.75;5053209;28;47357;-69
2023/10/29 10:50:34;;;;;;;;;0.00;0.00;;;;;15.85;73.17;99005.34;5051387;28;45483;-69
2023/10/29 10:53:00;;;;;;;;;2.00;0.00;;;;;15.98;72.78;99026.66;5035749;28;45543;-68
2023/10/29 10:55:27;;;;;;;;;0.00;0.00;;;;;16.02;72.50;99021.69;5057164;28;45294;-68
2023/10/29 10:57:52;;;;;;;;;0.00;0.00;;;;;16.10;72.32;99008.00;5055483;28;46551;-69
2023/10/29 11:00:19;;;;;;;;;0.00;0.00;;;;;16.18;71.80;99025.63;5055629;28;45512;-70
2023/10/29 11:02:45;;;;;;;;;0.00;0.00;;;;;16.26;71.66;99025.38;5056532;28;45483;-70
2023/10/29 11:05:13;;;;;;;;;0.00;0.00;;;;;15.97;71.31;98960.69;5056961;28;45477;-70
2023/10/29 11:07:41;;;;;;;;;2.00;0.25;;;;;16.26;71.33;99022.69;5054405;28;46916;-68
2023/10/29 11:10:10;;;;;;;;;0.00;0.00;;;;;16.33;71.07;99024.25;5056068;28;45307;-69
2023/10/29 11:12:36;;;;;;;;;0.00;0.00;;;;;16.38;71.33;99015.53;5056630;28;45529;-69
2023/10/29 11:15:11;;;;;;;;;0.00;0.00;;;;;16.26;70.29;99014.66;5056518;28;45484;-70
2023/10/29 11:17:59;;;;;;;;;0.75;0.00;;;;;16.31;70.36;99025.50;5055432;28;46954;-69
2023/10/29 11:20:45;;;;;;;;;0.00;0.00;;;;;16.30;70.18;99034.59;5056601;28;45312;-68
2023/10/29 11:23:14;;;;;;;;;1.00;0.00;;;;;16.35;69.96;99056.19;5054530;28;45450;-69
2023/10/29 11:25:41;;;;;;;;;0.00;0.00;;;;;16.41;70.45;99057.97;5056660;28;45258;-69
2023/10/29 11:28:26;;;;;;;;;0.00;0.00;;;;;16.43;68.95;99058.59;5055930;28;46774;-70